createdAt,value
2017-03-27T00:00:03.823Z,0
2017-03-27T00:00:29.924Z,0
2017-03-27T00:00:56.028Z,0
2017-03-27T00:01:22.108Z,0
2017-03-27T00:01:48.211Z,0
2017-03-27T00:02:14.316Z,0
2017-03-27T00:02:40.417Z,0
2017-03-27T00:03:06.568Z,0
2017-03-27T00:03:32.719Z,0
2017-03-27T00:03:58.848Z,0
2017-03-27T00:04:24.977Z,0
2017-03-27T00:04:51.075Z,0
2017-03-27T00:05:17.178Z,0
2017-03-27T00:05:43.282Z,0
2017-03-27T00:06:09.364Z,0
2017-03-27T00:06:35.488Z,0
2017-03-27T00:07:01.569Z,0
2017-03-27T00:07:27.695Z,0
2017-03-27T00:07:53.797Z,0
2017-03-27T00:08:19.900Z,0
2017-03-27T00:08:46.048Z,0
2017-03-27T00:09:12.175Z,0
2017-03-27T00:09:38.322Z,0
2017-03-27T00:10:04.425Z,0
2017-03-27T00:10:30.507Z,0
2017-03-27T00:10:56.632Z,0
2017-03-27T00:11:22.737Z,0
2017-03-27T00:11:48.840Z,0
2017-03-27T00:12:14.969Z,0
2017-03-27T00:12:41.081Z,0
2017-03-27T00:13:07.229Z,0
2017-03-27T00:13:33.333Z,0
2017-03-27T00:13:59.458Z,0
2017-03-27T00:14:25.582Z,0
2017-03-27T00:14:51.687Z,0
2017-03-27T00:15:17.788Z,0
2017-03-27T00:15:43.891Z,0
2017-03-27T00:16:13.050Z,0
2017-03-27T00:16:39.130Z,0
2017-03-27T00:18:23.860Z,0
2017-03-27T00:18:50.012Z,0
2017-03-27T00:19:16.116Z,0
2017-03-27T00:19:42.244Z,0
2017-03-27T00:20:08.326Z,0
2017-03-27T00:20:34.619Z,0
2017-03-27T00:21:00.696Z,0
2017-03-27T00:21:26.801Z,0
2017-03-27T00:21:52.903Z,0
2017-03-27T00:22:19.030Z,0
2017-03-27T00:22:45.160Z,0
2017-03-27T00:23:11.262Z,0
2017-03-27T00:23:37.392Z,0
2017-03-27T00:24:03.540Z,0
2017-03-27T00:24:29.695Z,0
2017-03-27T00:24:55.817Z,0
2017-03-27T00:25:21.945Z,0
2017-03-27T00:25:48.049Z,0
2017-03-27T00:26:14.130Z,0
2017-03-27T00:26:40.283Z,0
2017-03-27T00:27:06.378Z,0
2017-03-27T00:27:32.483Z,0
2017-03-27T00:27:58.587Z,0
2017-03-27T00:28:24.740Z,0
2017-03-27T00:28:50.891Z,0
2017-03-27T00:29:16.996Z,0
2017-03-27T00:29:43.146Z,0
2017-03-27T00:30:09.272Z,0
2017-03-27T00:30:35.354Z,0
2017-03-27T00:31:01.435Z,0
2017-03-27T00:31:27.516Z,0
2017-03-27T00:31:53.644Z,0
2017-03-27T00:32:19.725Z,0
2017-03-27T00:32:45.828Z,0
2017-03-27T00:33:11.956Z,0
2017-03-27T00:33:38.081Z,0
2017-03-27T00:34:04.184Z,0
2017-03-27T00:34:30.359Z,0
2017-03-27T00:34:56.488Z,0
2017-03-27T00:35:22.616Z,0
2017-03-27T00:35:48.721Z,0
2017-03-27T00:36:14.800Z,0
2017-03-27T00:36:40.923Z,0
2017-03-27T00:37:07.094Z,0
2017-03-27T00:37:33.220Z,0
2017-03-27T00:37:59.353Z,0
2017-03-27T00:38:25.498Z,0
2017-03-27T00:38:51.627Z,0
2017-03-27T00:39:17.769Z,0
2017-03-27T00:39:43.873Z,0
2017-03-27T00:40:10.001Z,0
2017-03-27T00:40:36.079Z,0
2017-03-27T00:41:02.185Z,0
2017-03-27T00:41:28.310Z,0
2017-03-27T00:41:54.412Z,0
2017-03-27T00:42:20.517Z,0
2017-03-27T00:42:46.648Z,0
2017-03-27T00:43:12.771Z,0
2017-03-27T00:43:38.922Z,0
2017-03-27T00:44:05.097Z,0
2017-03-27T00:44:31.227Z,0
2017-03-27T00:47:31.540Z,0
2017-03-27T00:47:57.694Z,0
2017-03-27T00:48:23.843Z,0
2017-03-27T00:48:49.972Z,0
2017-03-27T00:49:16.099Z,0
2017-03-27T00:49:42.226Z,0
2017-03-27T00:50:08.331Z,0
2017-03-27T00:50:34.456Z,0
2017-03-27T00:51:00.537Z,0
2017-03-27T00:51:26.641Z,0
2017-03-27T00:51:52.725Z,0
2017-03-27T00:52:18.806Z,0
2017-03-27T00:52:44.886Z,0
2017-03-27T00:53:11.036Z,0
2017-03-27T00:53:37.164Z,0
2017-03-27T00:54:03.314Z,0
2017-03-27T00:54:29.416Z,0
2017-03-27T00:54:55.545Z,0
2017-03-27T00:55:21.693Z,0
2017-03-27T00:55:47.796Z,0
2017-03-27T00:56:13.877Z,0
2017-03-27T00:56:40.002Z,0
2017-03-27T00:57:06.130Z,0
2017-03-27T00:57:32.236Z,0
2017-03-27T00:57:58.386Z,0
2017-03-27T00:58:24.494Z,0
2017-03-27T00:58:50.624Z,0
2017-03-27T00:59:16.799Z,0
2017-03-27T00:59:42.905Z,0
2017-03-27T01:00:09.058Z,0
2017-03-27T01:00:35.141Z,0
2017-03-27T01:01:01.269Z,0
2017-03-27T01:01:27.352Z,0
2017-03-27T01:01:53.433Z,0
2017-03-27T01:02:19.558Z,0
2017-03-27T01:02:45.708Z,0
2017-03-27T01:03:11.858Z,0
2017-03-27T01:03:38.009Z,0
2017-03-27T01:04:04.160Z,0
2017-03-27T01:04:30.283Z,0
2017-03-27T01:04:56.409Z,0
2017-03-27T01:05:22.491Z,0
2017-03-27T01:05:48.595Z,0
2017-03-27T01:06:14.699Z,0
2017-03-27T01:06:40.778Z,0
2017-03-27T01:07:06.886Z,0
2017-03-27T01:07:32.991Z,0
2017-03-27T01:07:59.091Z,0
2017-03-27T01:08:25.244Z,0
2017-03-27T01:08:51.371Z,0
2017-03-27T01:09:17.542Z,0
2017-03-27T01:09:43.645Z,0
2017-03-27T01:10:09.790Z,0
2017-03-27T01:10:35.896Z,0
2017-03-27T01:11:01.998Z,0
2017-03-27T01:11:28.123Z,0
2017-03-27T01:11:54.228Z,0
2017-03-27T01:12:20.330Z,0
2017-03-27T01:12:46.503Z,0
2017-03-27T01:13:12.610Z,0
2017-03-27T01:13:38.757Z,0
2017-03-27T01:14:04.907Z,0
2017-03-27T01:14:31.010Z,0
2017-03-27T01:14:58.157Z,0
2017-03-27T01:15:24.240Z,0
2017-03-27T01:17:27.252Z,0
2017-03-27T01:17:53.451Z,0
2017-03-27T01:18:29.816Z,0
2017-03-27T01:18:55.941Z,0
2017-03-27T01:19:22.021Z,0
2017-03-27T01:19:48.143Z,0
2017-03-27T01:20:14.246Z,0
2017-03-27T01:20:40.397Z,0
2017-03-27T01:21:06.519Z,0
2017-03-27T01:21:32.599Z,0
2017-03-27T01:21:58.679Z,0
2017-03-27T01:22:24.805Z,0
2017-03-27T01:22:50.909Z,0
2017-03-27T01:23:17.011Z,0
2017-03-27T01:23:43.113Z,0
2017-03-27T01:24:09.261Z,0
2017-03-27T01:24:35.389Z,0
2017-03-27T01:25:01.491Z,0
2017-03-27T01:25:27.614Z,0
2017-03-27T01:25:53.717Z,0
2017-03-27T01:26:19.818Z,0
2017-03-27T01:26:45.928Z,0
2017-03-27T01:27:12.046Z,0
2017-03-27T01:27:38.127Z,0
2017-03-27T01:28:04.277Z,0
2017-03-27T01:28:30.399Z,0
2017-03-27T01:28:56.593Z,0
2017-03-27T01:29:22.740Z,0
2017-03-27T01:29:48.846Z,0
2017-03-27T01:30:14.928Z,0
2017-03-27T01:30:41.048Z,0
2017-03-27T01:31:07.129Z,0
2017-03-27T01:31:33.208Z,0
2017-03-27T01:31:59.287Z,0
2017-03-27T01:32:25.367Z,0
2017-03-27T01:32:51.467Z,0
2017-03-27T01:33:17.569Z,0
2017-03-27T01:33:43.718Z,0
2017-03-27T01:34:09.840Z,0
2017-03-27T01:34:35.965Z,0
2017-03-27T01:35:02.069Z,0
2017-03-27T01:35:28.168Z,0
2017-03-27T01:35:54.270Z,0
2017-03-27T01:36:20.349Z,0
2017-03-27T01:36:46.453Z,0
2017-03-27T01:37:12.556Z,0
2017-03-27T01:37:38.682Z,0
2017-03-27T01:38:04.805Z,0
2017-03-27T01:38:30.952Z,0
2017-03-27T01:38:57.076Z,0
2017-03-27T01:39:23.247Z,0
2017-03-27T01:39:49.351Z,0
2017-03-27T01:40:15.479Z,0
2017-03-27T01:40:41.558Z,0
2017-03-27T01:41:07.660Z,0
2017-03-27T01:41:33.788Z,0
2017-03-27T01:41:59.869Z,0
2017-03-27T01:42:25.972Z,0
2017-03-27T01:42:52.078Z,0
2017-03-27T01:43:18.198Z,0
2017-03-27T01:43:44.321Z,0
2017-03-27T01:44:10.425Z,0
2017-03-27T01:44:36.552Z,0
2017-03-27T01:45:02.674Z,0
2017-03-27T01:45:28.754Z,0
2017-03-27T01:45:54.834Z,0
2017-03-27T01:46:20.957Z,0
2017-03-27T01:46:47.061Z,0
2017-03-27T01:47:13.183Z,0
2017-03-27T01:47:39.313Z,0
2017-03-27T01:48:05.439Z,0
2017-03-27T01:48:31.544Z,0
2017-03-27T01:48:57.669Z,0
2017-03-27T01:49:23.817Z,0
2017-03-27T01:49:49.921Z,0
2017-03-27T01:50:16.050Z,0
2017-03-27T01:50:42.148Z,0
2017-03-27T01:51:08.229Z,0
2017-03-27T01:51:34.306Z,0
2017-03-27T01:52:00.389Z,0
2017-03-27T01:52:26.468Z,0
2017-03-27T01:52:52.594Z,0
2017-03-27T01:53:18.721Z,0
2017-03-27T01:53:44.846Z,0
2017-03-27T01:54:10.993Z,0
2017-03-27T01:54:37.185Z,0
2017-03-27T01:55:03.264Z,0
2017-03-27T01:55:29.343Z,0
2017-03-27T01:55:55.420Z,0
2017-03-27T01:56:21.522Z,0
2017-03-27T01:56:47.625Z,0
2017-03-27T01:57:13.773Z,0
2017-03-27T01:57:39.876Z,0
2017-03-27T01:58:06.025Z,0
2017-03-27T01:58:32.153Z,0
2017-03-27T01:58:58.300Z,0
2017-03-27T01:59:24.426Z,0
2017-03-27T01:59:50.525Z,0
2017-03-27T02:00:16.650Z,0
2017-03-27T02:00:42.750Z,0
2017-03-27T02:01:08.852Z,0
2017-03-27T02:01:34.973Z,0
2017-03-27T02:02:01.088Z,0
2017-03-27T02:02:27.175Z,0
2017-03-27T02:02:53.278Z,0
2017-03-27T02:03:19.380Z,0
2017-03-27T02:03:45.492Z,0
2017-03-27T02:04:11.606Z,0
2017-03-27T02:04:37.734Z,0
2017-03-27T02:05:03.839Z,0
2017-03-27T02:05:29.988Z,0
2017-03-27T02:05:56.117Z,0
2017-03-27T02:06:22.240Z,0
2017-03-27T02:06:48.342Z,0
2017-03-27T02:07:14.440Z,0
2017-03-27T02:07:40.568Z,0
2017-03-27T02:08:06.695Z,0
2017-03-27T02:08:32.823Z,0
2017-03-27T02:08:58.953Z,0
2017-03-27T02:09:25.078Z,0
2017-03-27T02:09:51.159Z,0
2017-03-27T02:10:17.306Z,0
2017-03-27T02:10:43.405Z,0
2017-03-27T02:11:09.489Z,0
2017-03-27T02:11:35.564Z,0
2017-03-27T02:12:01.689Z,0
2017-03-27T02:12:27.813Z,0
2017-03-27T02:12:53.966Z,0
2017-03-27T02:13:20.116Z,0
2017-03-27T02:13:46.267Z,0
2017-03-27T02:14:12.414Z,0
2017-03-27T02:14:38.541Z,0
2017-03-27T02:15:04.664Z,0
2017-03-27T02:15:30.742Z,0
2017-03-27T02:15:56.821Z,0
2017-03-27T02:16:22.922Z,0
2017-03-27T02:16:49.003Z,0
2017-03-27T02:17:15.082Z,0
2017-03-27T02:17:41.183Z,0
2017-03-27T02:18:07.629Z,0
2017-03-27T02:18:33.753Z,0
2017-03-27T02:18:59.924Z,0
2017-03-27T02:19:26.049Z,0
2017-03-27T02:19:52.175Z,0
2017-03-27T02:20:18.277Z,0
2017-03-27T02:20:44.356Z,0
2017-03-27T02:21:10.460Z,0
2017-03-27T02:21:36.536Z,0
2017-03-27T02:22:02.639Z,0
2017-03-27T02:22:28.741Z,0
2017-03-27T02:22:54.845Z,0
2017-03-27T02:23:20.946Z,0
2017-03-27T02:23:47.095Z,0
2017-03-27T02:24:13.194Z,0
2017-03-27T02:24:39.304Z,0
2017-03-27T02:25:05.422Z,0
2017-03-27T02:25:31.524Z,0
2017-03-27T02:25:57.649Z,0
2017-03-27T02:26:23.728Z,0
2017-03-27T02:26:49.829Z,0
2017-03-27T02:27:15.933Z,0
2017-03-27T02:27:42.018Z,0
2017-03-27T02:28:08.160Z,0
2017-03-27T02:28:34.263Z,0
2017-03-27T02:29:00.453Z,0
2017-03-27T02:29:26.578Z,0
2017-03-27T02:29:52.680Z,0
2017-03-27T02:30:18.785Z,0
2017-03-27T02:30:46.281Z,0
2017-03-27T02:31:12.360Z,0
2017-03-27T02:31:38.439Z,0
2017-03-27T02:32:04.564Z,0
2017-03-27T02:32:30.666Z,0
2017-03-27T02:32:56.790Z,0
2017-03-27T02:33:23.133Z,0
2017-03-27T02:33:49.213Z,0
2017-03-27T02:34:15.317Z,0
2017-03-27T02:34:41.418Z,0
2017-03-27T02:35:07.494Z,0
2017-03-27T02:35:33.623Z,0
2017-03-27T02:35:59.700Z,0
2017-03-27T02:36:25.781Z,0
2017-03-27T02:36:51.881Z,0
2017-03-27T02:37:17.982Z,0
2017-03-27T02:37:44.086Z,0
2017-03-27T02:38:10.231Z,0
2017-03-27T02:38:36.356Z,0
2017-03-27T02:39:02.482Z,0
2017-03-27T02:39:28.606Z,0
2017-03-27T02:39:54.952Z,0
2017-03-27T02:40:21.053Z,0
2017-03-27T02:40:47.154Z,0
2017-03-27T02:41:13.259Z,0
2017-03-27T02:41:39.360Z,0
2017-03-27T02:42:05.486Z,0
2017-03-27T02:42:31.588Z,0
2017-03-27T02:42:57.734Z,0
2017-03-27T02:43:23.858Z,0
2017-03-27T02:43:49.983Z,0
2017-03-27T02:44:16.089Z,0
2017-03-27T02:44:42.238Z,0
2017-03-27T02:45:08.362Z,0
2017-03-27T02:45:34.462Z,0
2017-03-27T02:46:00.542Z,0
2017-03-27T02:46:26.621Z,0
2017-03-27T02:46:52.722Z,0
2017-03-27T02:47:18.826Z,0
2017-03-27T02:47:44.998Z,0
2017-03-27T02:48:11.099Z,0
2017-03-27T02:48:37.245Z,0
2017-03-27T02:49:03.395Z,0
2017-03-27T02:49:29.496Z,0
2017-03-27T02:49:55.575Z,0
2017-03-27T02:50:21.656Z,0
2017-03-27T02:50:47.758Z,0
2017-03-27T02:51:13.858Z,0
2017-03-27T02:51:39.959Z,0
2017-03-27T02:52:06.062Z,0
2017-03-27T02:52:32.187Z,0
2017-03-27T02:52:58.287Z,0
2017-03-27T02:53:24.413Z,0
2017-03-27T02:55:34.514Z,0
2017-03-27T02:56:00.615Z,0
2017-03-27T02:56:26.717Z,0
2017-03-27T02:56:52.816Z,0
2017-03-27T02:57:18.918Z,0
2017-03-27T02:57:45.042Z,0
2017-03-27T02:58:11.443Z,0
2017-03-27T02:58:37.793Z,0
2017-03-27T02:59:03.940Z,0
2017-03-27T02:59:30.065Z,0
2017-03-27T02:59:56.170Z,0
2017-03-27T03:00:22.296Z,0
2017-03-27T03:00:48.399Z,0
2017-03-27T03:01:14.524Z,0
2017-03-27T03:01:40.648Z,0
2017-03-27T03:02:06.728Z,0
2017-03-27T03:02:32.833Z,0
2017-03-27T03:02:58.981Z,0
2017-03-27T03:03:25.106Z,0
2017-03-27T03:03:51.227Z,0
2017-03-27T03:04:17.351Z,0
2017-03-27T03:04:43.474Z,0
2017-03-27T03:05:09.577Z,0
2017-03-27T03:05:35.700Z,0
2017-03-27T03:06:01.801Z,0
2017-03-27T03:06:27.882Z,0
2017-03-27T03:06:53.987Z,0
2017-03-27T03:07:20.062Z,0
2017-03-27T03:07:46.211Z,0
2017-03-27T03:08:12.359Z,0
2017-03-27T03:08:38.508Z,0
2017-03-27T03:09:04.657Z,0
2017-03-27T03:09:30.800Z,0
2017-03-27T03:09:56.904Z,0
2017-03-27T03:10:23.005Z,0
2017-03-27T03:10:49.088Z,0
2017-03-27T03:11:15.189Z,0
2017-03-27T03:11:41.269Z,0
2017-03-27T03:12:07.371Z,0
2017-03-27T03:12:33.500Z,0
2017-03-27T03:12:59.647Z,0
2017-03-27T03:13:25.820Z,0
2017-03-27T03:13:51.965Z,0
2017-03-27T03:14:18.068Z,0
2017-03-27T03:14:44.216Z,0
2017-03-27T03:15:10.341Z,0
2017-03-27T03:15:36.463Z,0
2017-03-27T03:16:02.543Z,0
2017-03-27T03:16:28.663Z,0
2017-03-27T03:16:54.787Z,0
2017-03-27T03:17:20.866Z,0
2017-03-27T03:17:47.012Z,0
2017-03-27T03:18:13.136Z,0
2017-03-27T03:18:39.237Z,0
2017-03-27T03:19:05.336Z,0
2017-03-27T03:19:31.484Z,0
2017-03-27T03:19:57.606Z,0
2017-03-27T03:20:23.709Z,0
2017-03-27T03:20:49.787Z,0
2017-03-27T03:21:15.867Z,0
2017-03-27T03:21:41.942Z,0
2017-03-27T03:22:08.046Z,0
2017-03-27T03:22:34.152Z,0
2017-03-27T03:23:00.273Z,0
2017-03-27T03:23:26.422Z,0
2017-03-27T03:23:52.571Z,0
2017-03-27T03:24:18.698Z,0
2017-03-27T03:24:44.793Z,0
2017-03-27T03:25:10.898Z,0
2017-03-27T03:25:37.001Z,0
2017-03-27T03:26:03.079Z,0
2017-03-27T03:26:29.204Z,0
2017-03-27T03:26:55.282Z,0
2017-03-27T03:27:21.384Z,0
2017-03-27T03:27:47.506Z,0
2017-03-27T03:28:15.094Z,0
2017-03-27T03:28:41.263Z,0
2017-03-27T03:29:07.409Z,0
2017-03-27T03:29:33.534Z,0
2017-03-27T03:29:59.662Z,0
2017-03-27T03:30:25.787Z,0
2017-03-27T03:30:51.865Z,0
2017-03-27T03:31:17.942Z,0
2017-03-27T03:31:44.046Z,0
2017-03-27T03:32:10.125Z,0
2017-03-27T03:32:36.250Z,0
2017-03-27T03:33:02.373Z,0
2017-03-27T03:33:28.524Z,0
2017-03-27T03:33:54.670Z,0
2017-03-27T03:34:20.817Z,0
2017-03-27T03:34:46.986Z,0
2017-03-27T03:35:13.107Z,0
2017-03-27T03:35:39.208Z,0
2017-03-27T03:36:05.286Z,0
2017-03-27T03:36:31.388Z,0
2017-03-27T03:36:57.467Z,0
2017-03-27T03:37:23.548Z,0
2017-03-27T03:37:49.691Z,0
2017-03-27T03:38:15.946Z,0
2017-03-27T03:38:42.074Z,0
2017-03-27T03:39:08.199Z,0
2017-03-27T03:39:34.364Z,0
2017-03-27T03:40:00.469Z,0
2017-03-27T03:40:26.591Z,0
2017-03-27T03:43:17.281Z,0
2017-03-27T03:43:43.411Z,0
2017-03-27T03:44:09.586Z,0
2017-03-27T03:44:35.737Z,0
2017-03-27T03:45:01.911Z,0
2017-03-27T03:45:28.058Z,0
2017-03-27T03:45:54.140Z,0
2017-03-27T03:46:20.266Z,0
2017-03-27T03:46:46.346Z,0
2017-03-27T03:47:12.471Z,0
2017-03-27T03:47:39.801Z,0
2017-03-27T03:49:27.765Z,0
2017-03-27T03:49:53.888Z,0
2017-03-27T03:50:19.988Z,0
2017-03-27T03:50:46.112Z,0
2017-03-27T03:51:12.214Z,0
2017-03-27T03:51:38.293Z,0
2017-03-27T03:52:04.394Z,0
2017-03-27T03:52:30.496Z,0
2017-03-27T03:52:56.646Z,0
2017-03-27T03:53:22.749Z,0
2017-03-27T03:53:48.870Z,0
2017-03-27T03:54:14.995Z,0
2017-03-27T03:54:41.096Z,0
2017-03-27T03:55:07.198Z,0
2017-03-27T03:55:33.345Z,0
2017-03-27T03:55:59.467Z,0
2017-03-27T03:56:25.571Z,0
2017-03-27T03:56:51.696Z,0
2017-03-27T03:57:17.797Z,0
2017-03-27T03:57:43.923Z,0
2017-03-27T03:58:10.027Z,0
2017-03-27T03:58:36.126Z,0
2017-03-27T03:59:02.204Z,0
2017-03-27T03:59:28.281Z,0
2017-03-27T03:59:54.408Z,0
2017-03-27T04:00:20.484Z,0
2017-03-27T04:00:46.586Z,0
2017-03-27T04:01:12.664Z,0
2017-03-27T04:01:38.746Z,0
2017-03-27T04:02:04.824Z,0
2017-03-27T04:02:30.927Z,0
2017-03-27T04:02:57.030Z,0
2017-03-27T04:03:23.165Z,0
2017-03-27T04:03:49.281Z,0
2017-03-27T04:04:15.428Z,0
2017-03-27T04:04:41.528Z,0
2017-03-27T04:05:07.655Z,0
2017-03-27T04:05:33.734Z,0
2017-03-27T04:05:59.837Z,0
2017-03-27T04:06:25.915Z,0
2017-03-27T04:06:51.993Z,0
2017-03-27T04:07:18.071Z,0
2017-03-27T04:07:44.152Z,0
2017-03-27T04:08:10.327Z,0
2017-03-27T04:08:36.451Z,0
2017-03-27T04:09:02.579Z,0
2017-03-27T04:09:28.728Z,0
2017-03-27T04:09:54.807Z,0
2017-03-27T04:10:20.952Z,0
2017-03-27T04:10:47.057Z,0
2017-03-27T04:11:13.139Z,0
2017-03-27T04:11:39.217Z,0
2017-03-27T04:12:05.319Z,0
2017-03-27T04:12:31.420Z,0
2017-03-27T04:12:57.572Z,0
2017-03-27T04:13:23.718Z,0
2017-03-27T04:13:49.869Z,0
2017-03-27T04:14:15.993Z,0
2017-03-27T04:14:42.118Z,0
2017-03-27T04:15:08.219Z,0
2017-03-27T04:15:34.321Z,0
2017-03-27T04:16:00.400Z,0
2017-03-27T04:16:26.501Z,0
2017-03-27T04:16:52.603Z,0
2017-03-27T04:17:18.706Z,0
2017-03-27T04:17:44.829Z,0
2017-03-27T04:18:10.955Z,0
2017-03-27T04:18:37.128Z,0
2017-03-27T04:19:03.252Z,0
2017-03-27T04:19:29.377Z,0
2017-03-27T04:19:55.459Z,0
2017-03-27T04:20:21.560Z,0
2017-03-27T04:20:47.663Z,0
2017-03-27T04:21:13.765Z,0
2017-03-27T04:21:39.846Z,0
2017-03-27T04:22:05.925Z,0
2017-03-27T04:22:32.029Z,0
2017-03-27T04:22:58.131Z,0
2017-03-27T04:23:24.282Z,0
2017-03-27T04:23:50.407Z,0
2017-03-27T04:24:16.553Z,0
2017-03-27T04:24:42.681Z,0
2017-03-27T04:25:08.811Z,0
2017-03-27T04:25:34.915Z,0
2017-03-27T04:26:01.023Z,0
2017-03-27T04:26:27.115Z,0
2017-03-27T04:26:53.194Z,0
2017-03-27T04:27:19.320Z,0
2017-03-27T04:27:45.469Z,0
2017-03-27T04:28:11.570Z,0
2017-03-27T04:28:37.746Z,0
2017-03-27T04:29:03.862Z,0
2017-03-27T04:29:30.013Z,0
2017-03-27T04:29:56.113Z,0
2017-03-27T04:30:22.237Z,0
2017-03-27T04:30:48.359Z,0
2017-03-27T04:31:14.440Z,0
2017-03-27T04:31:40.567Z,0
2017-03-27T04:32:06.644Z,0
2017-03-27T04:32:32.746Z,0
2017-03-27T04:32:58.872Z,0
2017-03-27T04:33:24.974Z,0
2017-03-27T04:33:51.054Z,0
2017-03-27T04:34:17.205Z,0
2017-03-27T04:34:43.308Z,0
2017-03-27T04:35:09.433Z,0
2017-03-27T04:35:35.511Z,0
2017-03-27T04:36:01.593Z,0
2017-03-27T04:36:27.694Z,0
2017-03-27T04:36:53.820Z,0
2017-03-27T04:37:19.949Z,0
2017-03-27T04:37:46.076Z,0
2017-03-27T04:38:12.179Z,0
2017-03-27T04:38:38.281Z,0
2017-03-27T04:39:04.426Z,4
2017-03-27T04:39:30.574Z,4
2017-03-27T04:39:56.700Z,4
2017-03-27T04:40:22.824Z,4
2017-03-27T04:40:48.900Z,0
2017-03-27T04:41:15.000Z,0
2017-03-27T04:41:41.078Z,0
2017-03-27T04:42:07.157Z,0
2017-03-27T04:42:33.260Z,4
2017-03-27T04:42:59.364Z,4
2017-03-27T04:43:25.535Z,4
2017-03-27T04:43:51.706Z,0
2017-03-27T04:44:17.833Z,4
2017-03-27T04:44:43.979Z,4
2017-03-27T04:45:10.078Z,4
2017-03-27T04:45:36.159Z,4
2017-03-27T04:46:02.240Z,4
2017-03-27T04:46:28.319Z,8
2017-03-27T04:46:54.443Z,4
2017-03-27T04:47:20.528Z,8
2017-03-27T04:47:46.645Z,4
2017-03-27T04:48:12.794Z,8
2017-03-27T04:48:38.947Z,8
2017-03-27T04:49:05.042Z,12
2017-03-27T04:49:31.145Z,8
2017-03-27T04:49:57.267Z,8
2017-03-27T04:50:23.388Z,8
2017-03-27T04:50:49.491Z,12
2017-03-27T04:51:15.595Z,16
2017-03-27T04:51:41.718Z,16
2017-03-27T04:52:07.798Z,12
2017-03-27T04:52:33.925Z,16
2017-03-27T04:53:00.052Z,20
2017-03-27T04:53:26.202Z,20
2017-03-27T04:53:52.304Z,24
2017-03-27T04:54:18.453Z,24
2017-03-27T04:54:44.557Z,24
2017-03-27T04:55:10.657Z,28
2017-03-27T04:55:36.737Z,32
2017-03-27T04:56:02.819Z,32
2017-03-27T04:56:28.897Z,36
2017-03-27T04:56:54.997Z,36
2017-03-27T04:57:21.099Z,40
2017-03-27T04:57:47.222Z,44
2017-03-27T04:58:13.323Z,44
2017-03-27T04:58:39.471Z,52
2017-03-27T04:59:05.575Z,52
2017-03-27T04:59:31.698Z,60
2017-03-27T04:59:57.823Z,64
2017-03-27T05:00:23.947Z,68
2017-03-27T05:00:50.049Z,68
2017-03-27T05:01:16.152Z,76
2017-03-27T05:01:42.233Z,80
2017-03-27T05:02:08.335Z,84
2017-03-27T05:02:34.415Z,92
2017-03-27T05:03:00.562Z,96
2017-03-27T05:03:26.690Z,104
2017-03-27T05:03:52.815Z,112
2017-03-27T05:04:18.940Z,116
2017-03-27T05:04:45.042Z,124
2017-03-27T05:05:11.122Z,132
2017-03-27T05:05:37.224Z,140
2017-03-27T05:06:03.304Z,148
2017-03-27T05:06:29.405Z,156
2017-03-27T05:06:55.483Z,168
2017-03-27T05:07:21.590Z,172
2017-03-27T05:07:47.739Z,184
2017-03-27T05:08:13.888Z,192
2017-03-27T05:08:40.014Z,204
2017-03-27T05:09:06.139Z,212
2017-03-27T05:09:32.284Z,224
2017-03-27T05:09:58.386Z,232
2017-03-27T05:10:24.486Z,244
2017-03-27T05:10:50.588Z,260
2017-03-27T05:11:16.710Z,272
2017-03-27T05:11:42.791Z,284
2017-03-27T05:12:11.926Z,300
2017-03-27T05:12:38.027Z,312
2017-03-27T05:13:04.178Z,324
2017-03-27T05:13:30.301Z,340
2017-03-27T05:13:56.403Z,356
2017-03-27T05:14:22.526Z,368
2017-03-27T05:14:48.649Z,384
2017-03-27T05:15:14.748Z,400
2017-03-27T05:15:40.853Z,416
2017-03-27T05:16:06.955Z,432
2017-03-27T05:16:33.241Z,448
2017-03-27T05:16:59.338Z,464
2017-03-27T05:17:25.419Z,484
2017-03-27T05:17:51.526Z,504
2017-03-27T05:18:17.651Z,520
2017-03-27T05:18:43.756Z,540
2017-03-27T05:19:09.885Z,560
2017-03-27T05:19:36.012Z,576
2017-03-27T05:20:02.138Z,600
2017-03-27T05:20:28.240Z,620
2017-03-27T05:20:54.319Z,640
2017-03-27T05:21:20.421Z,664
2017-03-27T05:21:46.551Z,684
2017-03-27T05:22:12.635Z,708
2017-03-27T05:22:38.758Z,728
2017-03-27T05:23:04.859Z,752
2017-03-27T05:23:30.986Z,776
2017-03-27T05:23:57.132Z,796
2017-03-27T05:24:23.259Z,820
2017-03-27T05:24:49.338Z,844
2017-03-27T05:25:15.442Z,872
2017-03-27T05:25:41.520Z,892
2017-03-27T05:26:07.652Z,920
2017-03-27T05:26:33.774Z,944
2017-03-27T05:26:59.880Z,968
2017-03-27T05:27:26.004Z,996
2017-03-27T05:27:52.125Z,1020
2017-03-27T05:28:18.254Z,1048
2017-03-27T05:28:44.378Z,1076
2017-03-27T05:29:10.506Z,1100
2017-03-27T05:29:36.612Z,1128
2017-03-27T05:30:02.737Z,1156
2017-03-27T05:30:28.841Z,1184
2017-03-27T05:30:54.943Z,1212
2017-03-27T05:31:21.046Z,1240
2017-03-27T05:31:47.153Z,1268
2017-03-27T05:32:13.253Z,1300
2017-03-27T05:32:39.355Z,1328
2017-03-27T05:33:05.460Z,1356
2017-03-27T05:33:31.586Z,1384
2017-03-27T05:33:57.734Z,1416
2017-03-27T05:34:23.818Z,1444
2017-03-27T05:34:49.917Z,1472
2017-03-27T05:35:16.022Z,1500
2017-03-27T05:35:42.102Z,1528
2017-03-27T05:36:08.182Z,1556
2017-03-27T05:36:34.284Z,1588
2017-03-27T05:37:00.406Z,1616
2017-03-27T05:37:26.507Z,1648
2017-03-27T05:37:52.610Z,1636
2017-03-27T05:38:18.735Z,1664
2017-03-27T05:38:44.885Z,1716
2017-03-27T05:39:11.032Z,1744
2017-03-27T05:39:37.165Z,1772
2017-03-27T05:40:03.323Z,1804
2017-03-27T05:40:29.452Z,1832
2017-03-27T05:40:55.533Z,1864
2017-03-27T05:41:21.658Z,1892
2017-03-27T05:41:47.763Z,1924
2017-03-27T05:42:13.866Z,1956
2017-03-27T05:42:39.995Z,1988
2017-03-27T05:43:06.140Z,2016
2017-03-27T05:43:32.287Z,2048
2017-03-27T05:43:58.436Z,2080
2017-03-27T05:44:24.587Z,2112
2017-03-27T05:44:50.693Z,2144
2017-03-27T05:45:16.818Z,2176
2017-03-27T05:45:42.895Z,2204
2017-03-27T05:46:09.018Z,2236
2017-03-27T05:46:35.099Z,2268
2017-03-27T05:47:01.178Z,2300
2017-03-27T05:47:27.280Z,2328
2017-03-27T05:47:53.407Z,2360
2017-03-27T05:48:19.579Z,2388
2017-03-27T05:48:45.683Z,2420
2017-03-27T05:49:11.832Z,2480
2017-03-27T05:49:37.989Z,2512
2017-03-27T05:50:04.071Z,2540
2017-03-27T05:50:30.150Z,2572
2017-03-27T05:50:56.231Z,2604
2017-03-27T05:51:22.332Z,2628
2017-03-27T05:51:48.412Z,2660
2017-03-27T05:52:14.539Z,2684
2017-03-27T05:52:40.619Z,2716
2017-03-27T05:53:06.720Z,2744
2017-03-27T05:53:32.800Z,2772
2017-03-27T05:53:58.927Z,2800
2017-03-27T05:54:25.032Z,2832
2017-03-27T05:54:51.135Z,2860
2017-03-27T05:55:17.305Z,2888
2017-03-27T05:55:43.384Z,2916
2017-03-27T05:56:09.465Z,2948
2017-03-27T05:56:35.567Z,2980
2017-03-27T05:57:01.648Z,3008
2017-03-27T05:57:27.749Z,3032
2017-03-27T05:57:53.874Z,3064
2017-03-27T05:58:20.002Z,3092
2017-03-27T05:58:46.150Z,3120
2017-03-27T05:59:12.276Z,3152
2017-03-27T05:59:38.380Z,3180
2017-03-27T06:00:04.504Z,3204
2017-03-27T06:00:30.629Z,3236
2017-03-27T06:00:56.712Z,3260
2017-03-27T06:01:22.792Z,3288
2017-03-27T06:01:48.871Z,3316
2017-03-27T06:02:14.951Z,3344
2017-03-27T06:02:41.078Z,3372
2017-03-27T06:03:07.183Z,3400
2017-03-27T06:03:33.336Z,3424
2017-03-27T06:03:59.440Z,3452
2017-03-27T06:04:25.542Z,3472
2017-03-27T06:04:51.668Z,3496
2017-03-27T06:05:17.791Z,3520
2017-03-27T06:05:43.892Z,3544
2017-03-27T06:06:09.995Z,3568
2017-03-27T06:06:36.144Z,3592
2017-03-27T06:07:02.224Z,3616
2017-03-27T06:07:28.305Z,3636
2017-03-27T06:07:54.410Z,3660
2017-03-27T06:08:20.558Z,3684
2017-03-27T06:08:46.687Z,3708
2017-03-27T06:09:12.792Z,3736
2017-03-27T06:09:38.893Z,3760
2017-03-27T06:10:05.039Z,3780
2017-03-27T06:10:31.120Z,3804
2017-03-27T06:10:57.202Z,3828
2017-03-27T06:11:23.301Z,3848
2017-03-27T06:11:49.382Z,3872
2017-03-27T06:12:15.485Z,3896
2017-03-27T06:12:41.613Z,3916
2017-03-27T06:13:07.762Z,3936
2017-03-27T06:13:33.866Z,3956
2017-03-27T06:14:00.036Z,3980
2017-03-27T06:14:26.136Z,4000
2017-03-27T06:14:52.261Z,4024
2017-03-27T06:15:18.388Z,4040
2017-03-27T06:15:44.517Z,4064
2017-03-27T06:16:10.590Z,4084
2017-03-27T06:16:36.669Z,4104
2017-03-27T06:17:03.998Z,4128
2017-03-27T06:17:30.102Z,4156
2017-03-27T06:17:56.251Z,4180
2017-03-27T06:18:22.356Z,4204
2017-03-27T06:18:48.485Z,4224
2017-03-27T06:19:14.637Z,4248
2017-03-27T06:19:40.761Z,4264
2017-03-27T06:20:06.865Z,4284
2017-03-27T06:20:32.968Z,4304
2017-03-27T06:20:59.073Z,4324
2017-03-27T06:21:25.201Z,4344
2017-03-27T06:21:51.256Z,4368
2017-03-27T06:22:17.358Z,4388
2017-03-27T06:22:43.439Z,4408
2017-03-27T06:23:09.567Z,4428
2017-03-27T06:23:35.670Z,4448
2017-03-27T06:24:01.821Z,4480
2017-03-27T06:24:27.975Z,4508
2017-03-27T06:24:54.077Z,4528
2017-03-27T06:25:20.227Z,4544
2017-03-27T06:25:46.309Z,4556
2017-03-27T06:26:12.414Z,4576
2017-03-27T06:26:38.494Z,4592
2017-03-27T06:27:04.621Z,4616
2017-03-27T06:27:30.723Z,4636
2017-03-27T06:27:56.852Z,4652
2017-03-27T06:28:22.981Z,4672